Reeders Grove, Pennsylvania
Current Conditions -  °F | °C
As of 11:53 AM on Friday 28 Nov 2014 (Local Time) from KSEG Reporting Station
Overcast Overcast  
Wind Chill: 23°   Ceiling: 4800
Heat Index: 31°   Visibility: 10mi
Dew Point: 14°   Wind: 8mph
Humidity: 50%   Direction: 290°WNW
Pressure: 30.25"   Gusts: NA
Location:  40.8606°N, 76.551°W
Report Text: KSEG 281653Z AUTO 29007KT 10SM BKN048 OVC055 M01/M10 A3025 RMK AO2 SLP249 T10061100
Loading
Personal Weather Stations






























Interactive Weather Map New forecast layout! Learn more

10-Day Weather Forecast

Advertisements
Track Severe Weather on mobile